Terminal Aerodrome Forecast
Issued by NWS Duluth, MN

Home | Current Version | Previous Version | Text Only | Print | Product List | Glossary On
Versions: 1 2 3 4 5 6 7 8 9 10 11 12 13 14 15 16 17 18 19 20 21 22 23 24 25 26 27 28 29 30 31 32 33 34 35 36
104
FTUS43 KDLH 060537
TAFDLH
TAF
KDLH 060537Z 0606/0706 25011KT P6SM OVC025
     FM060800 25011KT P6SM SCT025 BKN080
     FM061600 19013KT P6SM VCSH BKN025
     FM062300 20014G20KT 1 1/2SM -SN OVC015
     FM070400 23014KT 6SM -SN SCT015 BKN050=

USA.gov is the U.S. government's official web portal to all federal, state and local government web resources and services.